sensor_id;sensor_type;location;lat;lon;timestamp;P1;durP1;ratioP1;P2;durP2;ratioP2
5869;SDS011;2961;47.702;9.410;2023-05-08T00:01:01;2.00;;;1.90;;
5869;SDS011;2961;47.702;9.410;2023-05-08T00:03:27;1.90;;;1.90;;
5869;SDS011;2961;47.702;9.410;2023-05-08T00:05:54;1.20;;;1.20;;
5869;SDS011;2961;47.702;9.410;2023-05-08T00:08:21;3.10;;;1.40;;
5869;SDS011;2961;47.702;9.410;2023-05-08T00:10:49;1.70;;;1.70;;
5869;SDS011;2961;47.702;9.410;2023-05-08T00:13:16;1.60;;;1.27;;
5869;SDS011;2961;47.702;9.410;2023-05-08T00:15:43;2.30;;;1.20;;
5869;SDS011;2961;47.702;9.410;2023-05-08T00:18:09;3.70;;;1.37;;
5869;SDS011;2961;47.702;9.410;2023-05-08T00:20:36;1.90;;;1.80;;
5869;SDS011;2961;47.702;9.410;2023-05-08T00:23:03;1.70;;;1.60;;
5869;SDS011;2961;47.702;9.410;2023-05-08T00:25:30;1.40;;;1.30;;
5869;SDS011;2961;47.702;9.410;2023-05-08T00:27:58;2.00;;;1.83;;
5869;SDS011;2961;47.702;9.410;2023-05-08T00:30:25;1.10;;;1.10;;
5869;SDS011;2961;47.702;9.410;2023-05-08T00:32:52;1.47;;;1.47;;
5869;SDS011;2961;47.702;9.410;2023-05-08T00:35:19;1.47;;;1.47;;
5869;SDS011;2961;47.702;9.410;2023-05-08T00:37:46;4.50;;;1.43;;
5869;SDS011;2961;47.702;9.410;2023-05-08T00:40:13;2.57;;;1.53;;
5869;SDS011;2961;47.702;9.410;2023-05-08T00:42:40;1.43;;;1.43;;
5869;SDS011;2961;47.702;9.410;2023-05-08T00:45:08;1.87;;;1.87;;
5869;SDS011;2961;47.702;9.410;2023-05-08T00:47:36;2.90;;;1.67;;
5869;SDS011;2961;47.702;9.410;2023-05-08T00:50:04;6.03;;;1.73;;
5869;SDS011;2961;47.702;9.410;2023-05-08T00:52:31;1.53;;;1.50;;
5869;SDS011;2961;47.702;9.410;2023-05-08T00:54:59;1.40;;;1.40;;
5869;SDS011;2961;47.702;9.410;2023-05-08T00:57:28;5.30;;;1.53;;
5869;SDS011;2961;47.702;9.410;2023-05-08T00:59:55;3.43;;;1.60;;
5869;SDS011;2961;47.702;9.410;2023-05-08T01:02:23;3.17;;;1.43;;
5869;SDS011;2961;47.702;9.410;2023-05-08T01:04:51;2.00;;;1.03;;
5869;SDS011;2961;47.702;9.410;2023-05-08T01:07:18;1.60;;;1.20;;
5869;SDS011;2961;47.702;9.410;2023-05-08T01:09:46;3.20;;;1.37;;
5869;SDS011;2961;47.702;9.410;2023-05-08T01:12:14;1.57;;;1.57;;
5869;SDS011;2961;47.702;9.410;2023-05-08T01:14:53;1.40;;;1.40;;
5869;SDS011;2961;47.702;9.410;2023-05-08T01:17:31;2.20;;;1.80;;
5869;SDS011;2961;47.702;9.410;2023-05-08T01:20:18;1.30;;;1.30;;
5869;SDS011;2961;47.702;9.410;2023-05-08T01:26:24;1.63;;;1.10;;
5869;SDS011;2961;47.702;9.410;2023-05-08T01:29:37;1.50;;;1.40;;
5869;SDS011;2961;47.702;9.410;2023-05-08T01:32:39;3.30;;;1.87;;
5869;SDS011;2961;47.702;9.410;2023-05-08T01:35:11;1.27;;;1.27;;
5869;SDS011;2961;47.702;9.410;2023-05-08T01:37:48;2.50;;;1.83;;
5869;SDS011;2961;47.702;9.410;2023-05-08T01:40:20;1.67;;;1.57;;
5869;SDS011;2961;47.702;9.410;2023-05-08T01:43:00;2.10;;;1.90;;
5869;SDS011;2961;47.702;9.410;2023-05-08T01:45:36;1.53;;;1.43;;
5869;SDS011;2961;47.702;9.410;2023-05-08T01:48:06;1.30;;;1.30;;
5869;SDS011;2961;47.702;9.410;2023-05-08T01:50:37;1.60;;;1.60;;
5869;SDS011;2961;47.702;9.410;2023-05-08T01:53:08;2.93;;;1.77;;
5869;SDS011;2961;47.702;9.410;2023-05-08T01:55:47;1.77;;;1.67;;
5869;SDS011;2961;47.702;9.410;2023-05-08T01:58:18;1.70;;;1.70;;
5869;SDS011;2961;47.702;9.410;2023-05-08T02:00:46;1.50;;;1.37;;
5869;SDS011;2961;47.702;9.410;2023-05-08T02:03:16;1.60;;;1.60;;
5869;SDS011;2961;47.702;9.410;2023-05-08T02:05:45;2.10;;;1.20;;
5869;SDS011;2961;47.702;9.410;2023-05-08T02:08:15;1.70;;;1.40;;
5869;SDS011;2961;47.702;9.410;2023-05-08T02:10:44;1.40;;;1.40;;
5869;SDS011;2961;47.702;9.410;2023-05-08T02:13:14;1.33;;;1.33;;
5869;SDS011;2961;47.702;9.410;2023-05-08T02:15:44;1.60;;;1.60;;
5869;SDS011;2961;47.702;9.410;2023-05-08T02:18:12;1.47;;;1.37;;
5869;SDS011;2961;47.702;9.410;2023-05-08T02:20:42;2.83;;;1.60;;
5869;SDS011;2961;47.702;9.410;2023-05-08T02:23:09;2.70;;;1.90;;
5869;SDS011;2961;47.702;9.410;2023-05-08T02:25:37;1.83;;;1.70;;
5869;SDS011;2961;47.702;9.410;2023-05-08T02:28:05;2.13;;;1.40;;
5869;SDS011;2961;47.702;9.410;2023-05-08T02:30:33;1.47;;;1.47;;
5869;SDS011;2961;47.702;9.410;2023-05-08T02:33:00;3.03;;;2.07;;
5869;SDS011;2961;47.702;9.410;2023-05-08T02:35:28;2.17;;;1.53;;
5869;SDS011;2961;47.702;9.410;2023-05-08T02:37:58;2.20;;;1.53;;
5869;SDS011;2961;47.702;9.410;2023-05-08T02:40:26;10.77;;;1.50;;
5869;SDS011;2961;47.702;9.410;2023-05-08T02:42:54;1.70;;;1.60;;
5869;SDS011;2961;47.702;9.410;2023-05-08T02:45:22;1.80;;;1.80;;
5869;SDS011;2961;47.702;9.410;2023-05-08T02:47:51;3.53;;;2.00;;
5869;SDS011;2961;47.702;9.410;2023-05-08T02:50:26;1.57;;;1.57;;
5869;SDS011;2961;47.702;9.410;2023-05-08T02:53:03;2.27;;;2.10;;
5869;SDS011;2961;47.702;9.410;2023-05-08T02:55:37;7.97;;;2.07;;
5869;SDS011;2961;47.702;9.410;2023-05-08T02:58:10;1.80;;;1.80;;
5869;SDS011;2961;47.702;9.410;2023-05-08T03:00:45;2.23;;;2.00;;
5869;SDS011;2961;47.702;9.410;2023-05-08T03:03:18;1.83;;;1.73;;
5869;SDS011;2961;47.702;9.410;2023-05-08T03:05:50;1.80;;;1.70;;
5869;SDS011;2961;47.702;9.410;2023-05-08T03:08:22;2.83;;;1.83;;
5869;SDS011;2961;47.702;9.410;2023-05-08T03:10:53;2.87;;;1.70;;
5869;SDS011;2961;47.702;9.410;2023-05-08T03:13:22;2.03;;;1.80;;
5869;SDS011;2961;47.702;9.410;2023-05-08T03:15:51;2.70;;;2.53;;
5869;SDS011;2961;47.702;9.410;2023-05-08T03:18:22;2.53;;;2.43;;
5869;SDS011;2961;47.702;9.410;2023-05-08T03:20:52;3.97;;;2.40;;
5869;SDS011;2961;47.702;9.410;2023-05-08T03:23:22;2.50;;;2.10;;
5869;SDS011;2961;47.702;9.410;2023-05-08T03:25:52;1.73;;;1.73;;
5869;SDS011;2961;47.702;9.410;2023-05-08T03:28:22;2.03;;;1.93;;
5869;SDS011;2961;47.702;9.410;2023-05-08T03:30:49;2.60;;;2.50;;
5869;SDS011;2961;47.702;9.410;2023-05-08T03:33:16;2.27;;;2.20;;
5869;SDS011;2961;47.702;9.410;2023-05-08T03:35:44;1.93;;;1.77;;
5869;SDS011;2961;47.702;9.410;2023-05-08T03:38:12;2.10;;;2.00;;
5869;SDS011;2961;47.702;9.410;2023-05-08T03:40:40;2.73;;;2.00;;
5869;SDS011;2961;47.702;9.410;2023-05-08T03:43:08;5.23;;;1.80;;
5869;SDS011;2961;47.702;9.410;2023-05-08T03:45:36;2.03;;;2.00;;
5869;SDS011;2961;47.702;9.410;2023-05-08T03:48:04;2.33;;;2.13;;
5869;SDS011;2961;47.702;9.410;2023-05-08T03:50:33;1.93;;;1.93;;
5869;SDS011;2961;47.702;9.410;2023-05-08T03:53:01;3.33;;;2.20;;
5869;SDS011;2961;47.702;9.410;2023-05-08T03:55:28;2.77;;;2.27;;
5869;SDS011;2961;47.702;9.410;2023-05-08T03:57:58;1.73;;;1.70;;
5869;SDS011;2961;47.702;9.410;2023-05-08T04:00:31;1.57;;;1.57;;
5869;SDS011;2961;47.702;9.410;2023-05-08T04:03:10;2.63;;;2.00;;
5869;SDS011;2961;47.702;9.410;2023-05-08T04:05:49;2.00;;;1.90;;
5869;SDS011;2961;47.702;9.410;2023-05-08T04:08:19;2.30;;;2.20;;
5869;SDS011;2961;47.702;9.410;2023-05-08T04:10:49;3.03;;;2.67;;
5869;SDS011;2961;47.702;9.410;2023-05-08T04:13:26;3.87;;;2.03;;
5869;SDS011;2961;47.702;9.410;2023-05-08T04:15:58;2.30;;;1.70;;
5869;SDS011;2961;47.702;9.410;2023-05-08T04:18:30;2.13;;;2.03;;
5869;SDS011;2961;47.702;9.410;2023-05-08T04:21:02;1.67;;;1.67;;
5869;SDS011;2961;47.702;9.410;2023-05-08T04:23:33;3.27;;;2.30;;
5869;SDS011;2961;47.702;9.410;2023-05-08T04:26:01;2.10;;;2.00;;
5869;SDS011;2961;47.702;9.410;2023-05-08T04:28:30;4.73;;;1.93;;
5869;SDS011;2961;47.702;9.410;2023-05-08T04:30:57;1.80;;;1.80;;
5869;SDS011;2961;47.702;9.410;2023-05-08T04:33:24;2.10;;;2.00;;
5869;SDS011;2961;47.702;9.410;2023-05-08T04:35:52;2.20;;;2.10;;
5869;SDS011;2961;47.702;9.410;2023-05-08T04:38:19;1.80;;;1.70;;
5869;SDS011;2961;47.702;9.410;2023-05-08T04:40:46;2.30;;;2.10;;
5869;SDS011;2961;47.702;9.410;2023-05-08T04:43:13;2.10;;;1.70;;
5869;SDS011;2961;47.702;9.410;2023-05-08T04:45:41;4.20;;;2.10;;
5869;SDS011;2961;47.702;9.410;2023-05-08T04:48:08;1.50;;;1.50;;
5869;SDS011;2961;47.702;9.410;2023-05-08T04:50:34;3.03;;;2.23;;
5869;SDS011;2961;47.702;9.410;2023-05-08T04:53:01;3.80;;;2.03;;
5869;SDS011;2961;47.702;9.410;2023-05-08T04:55:28;2.13;;;2.03;;
5869;SDS011;2961;47.702;9.410;2023-05-08T04:57:55;2.50;;;2.40;;
5869;SDS011;2961;47.702;9.410;2023-05-08T05:00:22;3.17;;;2.97;;
5869;SDS011;2961;47.702;9.410;2023-05-08T05:02:50;2.10;;;2.00;;
5869;SDS011;2961;47.702;9.410;2023-05-08T05:05:17;2.50;;;2.30;;
5869;SDS011;2961;47.702;9.410;2023-05-08T05:07:43;2.53;;;2.43;;
5869;SDS011;2961;47.702;9.410;2023-05-08T05:10:10;2.77;;;2.53;;
5869;SDS011;2961;47.702;9.410;2023-05-08T05:12:37;6.60;;;2.43;;
5869;SDS011;2961;47.702;9.410;2023-05-08T05:15:04;2.53;;;2.30;;
5869;SDS011;2961;47.702;9.410;2023-05-08T05:17:32;2.43;;;2.20;;
5869;SDS011;2961;47.702;9.410;2023-05-08T05:20:00;2.37;;;2.17;;
5869;SDS011;2961;47.702;9.410;2023-05-08T05:22:27;2.90;;;2.70;;
5869;SDS011;2961;47.702;9.410;2023-05-08T05:24:53;2.10;;;2.00;;
5869;SDS011;2961;47.702;9.410;2023-05-08T05:27:20;2.70;;;2.60;;
5869;SDS011;2961;47.702;9.410;2023-05-08T05:29:47;4.10;;;2.50;;
5869;SDS011;2961;47.702;9.410;2023-05-08T05:32:14;2.63;;;2.53;;
5869;SDS011;2961;47.702;9.410;2023-05-08T05:34:41;2.63;;;2.43;;
5869;SDS011;2961;47.702;9.410;2023-05-08T05:37:09;2.63;;;2.53;;
5869;SDS011;2961;47.702;9.410;2023-05-08T05:39:36;1.97;;;1.87;;
5869;SDS011;2961;47.702;9.410;2023-05-08T05:42:03;5.37;;;2.20;;
5869;SDS011;2961;47.702;9.410;2023-05-08T05:44:29;4.30;;;2.10;;
5869;SDS011;2961;47.702;9.410;2023-05-08T05:46:56;7.33;;;2.27;;
5869;SDS011;2961;47.702;9.410;2023-05-08T05:49:23;3.53;;;2.00;;
5869;SDS011;2961;47.702;9.410;2023-05-08T05:51:50;2.63;;;2.27;;
5869;SDS011;2961;47.702;9.410;2023-05-08T05:54:18;2.10;;;2.00;;
5869;SDS011;2961;47.702;9.410;2023-05-08T05:56:45;2.50;;;2.30;;
5869;SDS011;2961;47.702;9.410;2023-05-08T05:59:12;2.97;;;2.67;;
5869;SDS011;2961;47.702;9.410;2023-05-08T06:01:39;7.27;;;2.60;;
5869;SDS011;2961;47.702;9.410;2023-05-08T06:04:05;2.63;;;2.53;;
5869;SDS011;2961;47.702;9.410;2023-05-08T06:06:32;2.50;;;2.40;;
5869;SDS011;2961;47.702;9.410;2023-05-08T06:08:59;3.30;;;3.10;;
5869;SDS011;2961;47.702;9.410;2023-05-08T06:11:27;6.63;;;3.07;;
5869;SDS011;2961;47.702;9.410;2023-05-08T06:13:54;6.80;;;3.17;;
5869;SDS011;2961;47.702;9.410;2023-05-08T06:16:21;3.30;;;3.10;;
5869;SDS011;2961;47.702;9.410;2023-05-08T06:18:48;2.80;;;2.70;;
5869;SDS011;2961;47.702;9.410;2023-05-08T06:21:15;3.37;;;3.00;;
5869;SDS011;2961;47.702;9.410;2023-05-08T06:23:42;3.00;;;2.90;;
5869;SDS011;2961;47.702;9.410;2023-05-08T06:26:09;2.80;;;2.70;;
5869;SDS011;2961;47.702;9.410;2023-05-08T06:28:37;2.77;;;2.57;;
5869;SDS011;2961;47.702;9.410;2023-05-08T06:31:04;3.00;;;2.90;;
5869;SDS011;2961;47.702;9.410;2023-05-08T06:33:31;3.60;;;3.40;;
5869;SDS011;2961;47.702;9.410;2023-05-08T06:35:57;2.57;;;2.47;;
5869;SDS011;2961;47.702;9.410;2023-05-08T06:38:25;2.23;;;2.13;;
5869;SDS011;2961;47.702;9.410;2023-05-08T06:40:51;2.20;;;2.10;;
5869;SDS011;2961;47.702;9.410;2023-05-08T06:43:19;3.43;;;1.77;;
5869;SDS011;2961;47.702;9.410;2023-05-08T06:45:47;2.10;;;2.00;;
5869;SDS011;2961;47.702;9.410;2023-05-08T06:48:14;5.50;;;2.20;;
5869;SDS011;2961;47.702;9.410;2023-05-08T06:50:41;1.67;;;1.57;;
5869;SDS011;2961;47.702;9.410;2023-05-08T06:53:08;1.60;;;1.50;;
5869;SDS011;2961;47.702;9.410;2023-05-08T06:55:35;1.30;;;1.30;;
5869;SDS011;2961;47.702;9.410;2023-05-08T06:58:01;1.60;;;1.60;;
5869;SDS011;2961;47.702;9.410;2023-05-08T07:00:28;2.00;;;1.93;;
5869;SDS011;2961;47.702;9.410;2023-05-08T07:02:56;1.57;;;1.40;;
5869;SDS011;2961;47.702;9.410;2023-05-08T07:05:23;2.10;;;1.90;;
5869;SDS011;2961;47.702;9.410;2023-05-08T07:07:50;1.83;;;1.73;;
5869;SDS011;2961;47.702;9.410;2023-05-08T07:10:18;1.70;;;1.60;;
5869;SDS011;2961;47.702;9.410;2023-05-08T07:12:46;4.40;;;2.07;;
5869;SDS011;2961;47.702;9.410;2023-05-08T07:15:13;2.13;;;2.07;;
5869;SDS011;2961;47.702;9.410;2023-05-08T07:17:40;1.77;;;1.67;;
5869;SDS011;2961;47.702;9.410;2023-05-08T07:20:08;3.53;;;1.73;;
5869;SDS011;2961;47.702;9.410;2023-05-08T07:22:35;1.57;;;1.47;;
5869;SDS011;2961;47.702;9.410;2023-05-08T07:25:02;2.13;;;2.03;;
5869;SDS011;2961;47.702;9.410;2023-05-08T07:27:29;4.33;;;1.90;;
5869;SDS011;2961;47.702;9.410;2023-05-08T07:29:56;1.80;;;1.73;;
5869;SDS011;2961;47.702;9.410;2023-05-08T07:32:27;1.80;;;1.80;;
5869;SDS011;2961;47.702;9.410;2023-05-08T07:34:55;3.20;;;1.83;;
5869;SDS011;2961;47.702;9.410;2023-05-08T07:37:23;2.17;;;2.07;;
5869;SDS011;2961;47.702;9.410;2023-05-08T07:39:50;2.47;;;2.30;;
5869;SDS011;2961;47.702;9.410;2023-05-08T07:42:16;2.73;;;1.90;;
5869;SDS011;2961;47.702;9.410;2023-05-08T07:44:43;1.73;;;1.73;;
5869;SDS011;2961;47.702;9.410;2023-05-08T07:47:10;2.17;;;2.10;;
5869;SDS011;2961;47.702;9.410;2023-05-08T07:49:37;1.50;;;1.50;;
5869;SDS011;2961;47.702;9.410;2023-05-08T07:52:03;1.57;;;1.47;;
5869;SDS011;2961;47.702;9.410;2023-05-08T07:54:32;3.50;;;2.00;;
5869;SDS011;2961;47.702;9.410;2023-05-08T07:56:58;1.87;;;1.77;;
5869;SDS011;2961;47.702;9.410;2023-05-08T07:59:25;3.20;;;1.90;;
5869;SDS011;2961;47.702;9.410;2023-05-08T08:01:52;2.97;;;1.97;;
5869;SDS011;2961;47.702;9.410;2023-05-08T08:04:19;2.13;;;1.80;;
5869;SDS011;2961;47.702;9.410;2023-05-08T08:06:45;1.43;;;1.33;;
5869;SDS011;2961;47.702;9.410;2023-05-08T08:09:12;2.00;;;1.70;;
5869;SDS011;2961;47.702;9.410;2023-05-08T08:11:40;1.63;;;1.53;;
5869;SDS011;2961;47.702;9.410;2023-05-08T08:14:07;6.63;;;1.40;;
5869;SDS011;2961;47.702;9.410;2023-05-08T08:16:34;3.63;;;1.67;;
5869;SDS011;2961;47.702;9.410;2023-05-08T08:19:00;4.50;;;1.40;;
5869;SDS011;2961;47.702;9.410;2023-05-08T08:21:27;1.90;;;1.50;;
5869;SDS011;2961;47.702;9.410;2023-05-08T08:23:55;2.03;;;1.77;;
5869;SDS011;2961;47.702;9.410;2023-05-08T08:26:22;1.50;;;1.50;;
5869;SDS011;2961;47.702;9.410;2023-05-08T08:28:52;2.17;;;2.07;;
5869;SDS011;2961;47.702;9.410;2023-05-08T08:31:18;2.10;;;2.00;;
5869;SDS011;2961;47.702;9.410;2023-05-08T08:33:45;2.30;;;2.20;;
5869;SDS011;2961;47.702;9.410;2023-05-08T08:36:12;2.20;;;2.10;;
5869;SDS011;2961;47.702;9.410;2023-05-08T08:38:39;1.73;;;1.63;;
5869;SDS011;2961;47.702;9.410;2023-05-08T08:41:06;2.20;;;2.10;;
5869;SDS011;2961;47.702;9.410;2023-05-08T08:43:33;2.10;;;1.90;;
5869;SDS011;2961;47.702;9.410;2023-05-08T08:46:08;2.20;;;2.10;;
5869;SDS011;2961;47.702;9.410;2023-05-08T08:48:36;2.30;;;2.10;;
5869;SDS011;2961;47.702;9.410;2023-05-08T08:51:08;2.30;;;2.20;;
5869;SDS011;2961;47.702;9.410;2023-05-08T08:53:41;1.83;;;1.73;;
5869;SDS011;2961;47.702;9.410;2023-05-08T08:56:11;1.80;;;1.80;;
5869;SDS011;2961;47.702;9.410;2023-05-08T08:58:40;2.43;;;2.33;;
5869;SDS011;2961;47.702;9.410;2023-05-08T09:01:15;2.37;;;2.17;;
5869;SDS011;2961;47.702;9.410;2023-05-08T09:03:44;6.17;;;2.30;;
5869;SDS011;2961;47.702;9.410;2023-05-08T09:06:12;2.10;;;2.00;;
5869;SDS011;2961;47.702;9.410;2023-05-08T09:08:39;2.53;;;2.33;;
5869;SDS011;2961;47.702;9.410;2023-05-08T09:11:06;2.80;;;2.50;;
5869;SDS011;2961;47.702;9.410;2023-05-08T09:13:33;5.53;;;2.97;;
5869;SDS011;2961;47.702;9.410;2023-05-08T09:16:00;2.30;;;2.17;;
5869;SDS011;2961;47.702;9.410;2023-05-08T09:18:29;5.17;;;2.70;;
5869;SDS011;2961;47.702;9.410;2023-05-08T09:20:55;2.20;;;2.03;;
5869;SDS011;2961;47.702;9.410;2023-05-08T09:23:24;5.90;;;2.80;;
5869;SDS011;2961;47.702;9.410;2023-05-08T09:25:51;3.57;;;2.83;;
5869;SDS011;2961;47.702;9.410;2023-05-08T09:28:18;3.23;;;2.50;;
5869;SDS011;2961;47.702;9.410;2023-05-08T09:30:52;3.07;;;2.80;;
5869;SDS011;2961;47.702;9.410;2023-05-08T09:33:21;2.73;;;2.63;;
5869;SDS011;2961;47.702;9.410;2023-05-08T09:35:50;2.63;;;2.43;;
5869;SDS011;2961;47.702;9.410;2023-05-08T09:38:30;2.93;;;2.80;;
5869;SDS011;2961;47.702;9.410;2023-05-08T09:41:04;3.07;;;2.90;;
5869;SDS011;2961;47.702;9.410;2023-05-08T09:43:33;3.70;;;3.07;;
5869;SDS011;2961;47.702;9.410;2023-05-08T09:46:09;3.07;;;2.97;;
5869;SDS011;2961;47.702;9.410;2023-05-08T09:48:46;2.90;;;2.70;;
5869;SDS011;2961;47.702;9.410;2023-05-08T09:51:14;5.70;;;3.10;;
5869;SDS011;2961;47.702;9.410;2023-05-08T09:53:41;8.80;;;3.17;;
5869;SDS011;2961;47.702;9.410;2023-05-08T09:56:07;2.77;;;2.70;;
5869;SDS011;2961;47.702;9.410;2023-05-08T09:58:37;3.80;;;3.47;;
5869;SDS011;2961;47.702;9.410;2023-05-08T10:01:05;5.20;;;3.57;;
5869;SDS011;2961;47.702;9.410;2023-05-08T10:03:45;4.07;;;3.87;;
5869;SDS011;2961;47.702;9.410;2023-05-08T10:06:14;3.80;;;3.60;;
5869;SDS011;2961;47.702;9.410;2023-05-08T10:08:41;4.83;;;3.50;;
5869;SDS011;2961;47.702;9.410;2023-05-08T10:11:14;4.73;;;4.30;;
5869;SDS011;2961;47.702;9.410;2023-05-08T10:21:30;3.93;;;3.63;;
5869;SDS011;2961;47.702;9.410;2023-05-08T10:24:02;4.80;;;4.40;;
5869;SDS011;2961;47.702;9.410;2023-05-08T10:26:37;4.43;;;4.03;;
5869;SDS011;2961;47.702;9.410;2023-05-08T10:29:09;5.53;;;3.90;;
5869;SDS011;2961;47.702;9.410;2023-05-08T10:31:42;4.47;;;4.23;;
5869;SDS011;2961;47.702;9.410;2023-05-08T10:34:12;4.93;;;4.37;;
5869;SDS011;2961;47.702;9.410;2023-05-08T10:36:45;3.67;;;3.47;;
5869;SDS011;2961;47.702;9.410;2023-05-08T10:39:12;3.60;;;3.40;;
5869;SDS011;2961;47.702;9.410;2023-05-08T10:41:41;4.97;;;3.77;;
5869;SDS011;2961;47.702;9.410;2023-05-08T10:44:08;4.53;;;4.30;;
5869;SDS011;2961;47.702;9.410;2023-05-08T10:46:36;4.60;;;4.20;;
5869;SDS011;2961;47.702;9.410;2023-05-08T10:49:11;5.00;;;4.60;;
5869;SDS011;2961;47.702;9.410;2023-05-08T10:51:49;5.57;;;5.17;;
5869;SDS011;2961;47.702;9.410;2023-05-08T10:54:25;4.50;;;4.20;;
5869;SDS011;2961;47.702;9.410;2023-05-08T10:57:07;4.53;;;4.23;;
5869;SDS011;2961;47.702;9.410;2023-05-08T10:59:35;6.97;;;5.17;;
5869;SDS011;2961;47.702;9.410;2023-05-08T11:02:03;4.97;;;4.57;;
5869;SDS011;2961;47.702;9.410;2023-05-08T11:04:31;5.60;;;5.20;;
5869;SDS011;2961;47.702;9.410;2023-05-08T11:06:59;5.33;;;5.00;;
5869;SDS011;2961;47.702;9.410;2023-05-08T11:09:27;5.53;;;5.22;;
5869;SDS011;2961;47.702;9.410;2023-05-08T11:11:58;12.00;;;5.50;;
5869;SDS011;2961;47.702;9.410;2023-05-08T11:14:32;5.50;;;5.20;;
5869;SDS011;2961;47.702;9.410;2023-05-08T11:17:02;5.33;;;4.77;;
5869;SDS011;2961;47.702;9.410;2023-05-08T11:19:32;4.60;;;4.30;;
5869;SDS011;2961;47.702;9.410;2023-05-08T11:22:21;5.50;;;5.00;;
5869;SDS011;2961;47.702;9.410;2023-05-08T11:24:53;5.20;;;4.70;;
5869;SDS011;2961;47.702;9.410;2023-05-08T11:30:34;4.60;;;4.30;;
5869;SDS011;2961;47.702;9.410;2023-05-08T11:33:12;3.90;;;3.70;;
5869;SDS011;2961;47.702;9.410;2023-05-08T11:35:43;4.07;;;3.77;;
5869;SDS011;2961;47.702;9.410;2023-05-08T11:38:20;4.70;;;4.30;;
5869;SDS011;2961;47.702;9.410;2023-05-08T11:40:53;6.40;;;3.80;;
5869;SDS011;2961;47.702;9.410;2023-05-08T11:43:25;4.47;;;4.07;;
5869;SDS011;2961;47.702;9.410;2023-05-08T11:46:33;8.43;;;4.47;;
5869;SDS011;2961;47.702;9.410;2023-05-08T11:49:03;3.73;;;3.53;;
5869;SDS011;2961;47.702;9.410;2023-05-08T11:51:30;4.23;;;3.93;;
5869;SDS011;2961;47.702;9.410;2023-05-08T11:53:59;3.57;;;3.37;;
5869;SDS011;2961;47.702;9.410;2023-05-08T11:56:26;3.90;;;3.60;;
5869;SDS011;2961;47.702;9.410;2023-05-08T11:59:00;5.20;;;4.90;;
5869;SDS011;2961;47.702;9.410;2023-05-08T12:01:29;4.35;;;4.05;;
5869;SDS011;2961;47.702;9.410;2023-05-08T12:04:00;4.90;;;4.50;;
5869;SDS011;2961;47.702;9.410;2023-05-08T12:06:27;4.10;;;3.90;;
5869;SDS011;2961;47.702;9.410;2023-05-08T12:08:55;5.37;;;4.97;;
5869;SDS011;2961;47.702;9.410;2023-05-08T12:11:24;5.70;;;4.40;;
5869;SDS011;2961;47.702;9.410;2023-05-08T12:13:51;4.47;;;4.17;;
5869;SDS011;2961;47.702;9.410;2023-05-08T12:16:18;4.97;;;4.50;;
5869;SDS011;2961;47.702;9.410;2023-05-08T12:18:48;6.67;;;4.90;;
5869;SDS011;2961;47.702;9.410;2023-05-08T12:21:15;4.70;;;4.30;;
5869;SDS011;2961;47.702;9.410;2023-05-08T12:23:42;4.27;;;3.87;;
5869;SDS011;2961;47.702;9.410;2023-05-08T12:26:09;4.90;;;4.60;;
5869;SDS011;2961;47.702;9.410;2023-05-08T12:28:38;7.23;;;4.60;;
5869;SDS011;2961;47.702;9.410;2023-05-08T12:31:05;5.30;;;4.90;;
5869;SDS011;2961;47.702;9.410;2023-05-08T12:33:32;5.40;;;5.10;;
5869;SDS011;2961;47.702;9.410;2023-05-08T12:35:59;4.67;;;4.37;;
5869;SDS011;2961;47.702;9.410;2023-05-08T12:38:27;4.70;;;4.37;;
5869;SDS011;2961;47.702;9.410;2023-05-08T12:40:54;4.57;;;4.27;;
5869;SDS011;2961;47.702;9.410;2023-05-08T12:43:23;6.20;;;5.80;;
5869;SDS011;2961;47.702;9.410;2023-05-08T12:45:58;7.50;;;5.57;;
5869;SDS011;2961;47.702;9.410;2023-05-08T12:48:25;5.47;;;4.83;;
5869;SDS011;2961;47.702;9.410;2023-05-08T12:50:51;4.27;;;4.00;;
5869;SDS011;2961;47.702;9.410;2023-05-08T12:53:19;6.37;;;4.70;;
5869;SDS011;2961;47.702;9.410;2023-05-08T12:55:50;7.33;;;4.63;;
5869;SDS011;2961;47.702;9.410;2023-05-08T12:58:18;5.00;;;3.97;;
5869;SDS011;2961;47.702;9.410;2023-05-08T13:00:47;4.80;;;4.50;;
5869;SDS011;2961;47.702;9.410;2023-05-08T13:03:21;4.77;;;4.47;;
5869;SDS011;2961;47.702;9.410;2023-05-08T13:05:49;8.93;;;5.07;;
5869;SDS011;2961;47.702;9.410;2023-05-08T13:08:17;5.50;;;4.37;;
5869;SDS011;2961;47.702;9.410;2023-05-08T13:10:45;4.63;;;3.93;;
5869;SDS011;2961;47.702;9.410;2023-05-08T13:13:13;3.93;;;3.70;;
5869;SDS011;2961;47.702;9.410;2023-05-08T13:15:41;5.90;;;5.40;;
5869;SDS011;2961;47.702;9.410;2023-05-08T13:18:08;4.60;;;4.20;;
5869;SDS011;2961;47.702;9.410;2023-05-08T13:20:37;4.60;;;4.20;;
5869;SDS011;2961;47.702;9.410;2023-05-08T13:23:04;4.60;;;4.20;;
5869;SDS011;2961;47.702;9.410;2023-05-08T13:25:31;5.97;;;3.77;;
5869;SDS011;2961;47.702;9.410;2023-05-08T13:27:58;3.67;;;3.47;;
5869;SDS011;2961;47.702;9.410;2023-05-08T13:30:26;4.90;;;4.50;;
5869;SDS011;2961;47.702;9.410;2023-05-08T13:32:53;3.50;;;3.30;;
5869;SDS011;2961;47.702;9.410;2023-05-08T13:35:19;3.57;;;3.30;;
5869;SDS011;2961;47.702;9.410;2023-05-08T13:37:48;8.13;;;3.87;;
5869;SDS011;2961;47.702;9.410;2023-05-08T13:40:15;4.03;;;3.70;;
5869;SDS011;2961;47.702;9.410;2023-05-08T13:42:43;4.10;;;3.90;;
5869;SDS011;2961;47.702;9.410;2023-05-08T13:45:10;6.83;;;3.70;;
5869;SDS011;2961;47.702;9.410;2023-05-08T13:47:38;6.00;;;4.53;;
5869;SDS011;2961;47.702;9.410;2023-05-08T13:50:06;4.30;;;3.90;;
5869;SDS011;2961;47.702;9.410;2023-05-08T13:52:34;4.30;;;4.00;;
5869;SDS011;2961;47.702;9.410;2023-05-08T13:55:03;7.53;;;4.27;;
5869;SDS011;2961;47.702;9.410;2023-05-08T13:57:30;4.23;;;3.93;;
5869;SDS011;2961;47.702;9.410;2023-05-08T13:59:57;4.30;;;3.90;;
5869;SDS011;2961;47.702;9.410;2023-05-08T14:02:24;5.23;;;3.60;;
5869;SDS011;2961;47.702;9.410;2023-05-08T14:04:51;5.13;;;3.90;;
5869;SDS011;2961;47.702;9.410;2023-05-08T14:07:18;4.77;;;4.37;;
5869;SDS011;2961;47.702;9.410;2023-05-08T14:09:45;4.00;;;3.70;;
5869;SDS011;2961;47.702;9.410;2023-05-08T14:12:22;3.60;;;3.40;;
5869;SDS011;2961;47.702;9.410;2023-05-08T14:14:49;3.77;;;3.50;;
5869;SDS011;2961;47.702;9.410;2023-05-08T14:17:16;4.00;;;3.53;;
5869;SDS011;2961;47.702;9.410;2023-05-08T14:19:42;4.87;;;3.17;;
5869;SDS011;2961;47.702;9.410;2023-05-08T14:22:10;4.63;;;4.20;;
5869;SDS011;2961;47.702;9.410;2023-05-08T14:24:36;4.37;;;4.07;;
5869;SDS011;2961;47.702;9.410;2023-05-08T14:27:03;3.80;;;3.50;;
5869;SDS011;2961;47.702;9.410;2023-05-08T14:29:31;3.57;;;3.37;;
5869;SDS011;2961;47.702;9.410;2023-05-08T14:31:58;4.57;;;3.10;;
5869;SDS011;2961;47.702;9.410;2023-05-08T14:34:25;4.17;;;3.87;;
5869;SDS011;2961;47.702;9.410;2023-05-08T14:36:52;3.30;;;3.10;;
5869;SDS011;2961;47.702;9.410;2023-05-08T14:39:19;3.57;;;3.37;;
5869;SDS011;2961;47.702;9.410;2023-05-08T14:41:45;8.20;;;3.67;;
5869;SDS011;2961;47.702;9.410;2023-05-08T14:44:12;4.33;;;3.93;;
5869;SDS011;2961;47.702;9.410;2023-05-08T14:46:40;3.63;;;3.10;;
5869;SDS011;2961;47.702;9.410;2023-05-08T14:49:07;4.53;;;4.13;;
5869;SDS011;2961;47.702;9.410;2023-05-08T14:51:34;14.93;;;5.57;;
5869;SDS011;2961;47.702;9.410;2023-05-08T14:54:01;8.90;;;5.50;;
5869;SDS011;2961;47.702;9.410;2023-05-08T14:56:28;15.47;;;13.00;;
5869;SDS011;2961;47.702;9.410;2023-05-08T14:58:55;8.63;;;7.87;;
5869;SDS011;2961;47.702;9.410;2023-05-08T15:01:21;6.80;;;6.10;;
5869;SDS011;2961;47.702;9.410;2023-05-08T15:03:50;6.43;;;5.83;;
5869;SDS011;2961;47.702;9.410;2023-05-08T15:06:18;6.90;;;6.30;;
5869;SDS011;2961;47.702;9.410;2023-05-08T15:08:45;6.70;;;6.20;;
5869;SDS011;2961;47.702;9.410;2023-05-08T15:11:12;5.43;;;5.07;;
5869;SDS011;2961;47.702;9.410;2023-05-08T15:13:40;7.67;;;6.97;;
5869;SDS011;2961;47.702;9.410;2023-05-08T15:16:07;8.63;;;6.40;;
5869;SDS011;2961;47.702;9.410;2023-05-08T15:18:35;6.23;;;5.73;;
5869;SDS011;2961;47.702;9.410;2023-05-08T15:21:04;6.50;;;5.37;;
5869;SDS011;2961;47.702;9.410;2023-05-08T15:23:31;7.70;;;6.07;;
5869;SDS011;2961;47.702;9.410;2023-05-08T15:26:07;7.10;;;6.23;;
5869;SDS011;2961;47.702;9.410;2023-05-08T15:28:33;7.90;;;6.87;;
5869;SDS011;2961;47.702;9.410;2023-05-08T15:31:06;7.50;;;6.80;;
5869;SDS011;2961;47.702;9.410;2023-05-08T15:33:33;8.70;;;7.87;;
5869;SDS011;2961;47.702;9.410;2023-05-08T15:36:00;8.10;;;7.40;;
5869;SDS011;2961;47.702;9.410;2023-05-08T15:38:28;6.60;;;6.20;;
5869;SDS011;2961;47.702;9.410;2023-05-08T15:40:55;6.70;;;6.20;;